createdAt,value
2022-10-21T00:00:43.473Z,13.85
2022-10-21T00:03:13.380Z,13.88
2022-10-21T00:05:43.716Z,13.90
2022-10-21T00:08:16.965Z,13.90
2022-10-21T00:10:47.193Z,13.91
2022-10-21T00:13:17.282Z,13.89
2022-10-21T00:15:47.423Z,13.93
2022-10-21T00:18:17.560Z,13.87
2022-10-21T00:20:47.688Z,13.83
2022-10-21T00:23:20.365Z,13.80
2022-10-21T00:25:50.665Z,13.75
2022-10-21T00:28:20.751Z,13.80
2022-10-21T00:30:50.771Z,13.76
2022-10-21T00:33:20.829Z,13.75
2022-10-21T00:35:55.030Z,13.65
2022-10-21T00:38:28.285Z,13.61
2022-10-21T00:40:58.658Z,13.62
2022-10-21T00:43:30.174Z,13.58
2022-10-21T00:46:06.224Z,13.67
2022-10-21T00:48:39.991Z,13.72
2022-10-21T00:51:13.139Z,13.72
2022-10-21T00:53:49.931Z,13.76
2022-10-21T00:56:24.684Z,13.83
2022-10-21T00:58:57.556Z,13.82
2022-10-21T01:01:27.906Z,13.79
2022-10-21T01:03:58.096Z,13.75
2022-10-21T01:06:29.556Z,13.69
2022-10-21T01:09:04.489Z,13.70
2022-10-21T01:11:44.321Z,13.76
2022-10-21T01:14:35.288Z,13.77
2022-10-21T01:17:26.542Z,13.77
2022-10-21T01:20:48.573Z,13.78
2022-10-21T01:23:53.007Z,13.80
2022-10-21T01:27:08.143Z,13.81
2022-10-21T01:30:32.024Z,13.88
2022-10-21T01:33:30.165Z,13.88
2022-10-21T01:36:11.337Z,13.89
2022-10-21T01:38:46.571Z,13.93
2022-10-21T01:41:27.734Z,13.94
2022-10-21T01:44:08.501Z,13.95
2022-10-21T01:46:46.534Z,13.89
2022-10-21T01:49:26.772Z,13.90
2022-10-21T01:51:57.736Z,13.92
2022-10-21T01:54:32.107Z,13.97
2022-10-21T01:57:04.833Z,13.97
2022-10-21T01:59:35.976Z,14.00
2022-10-21T02:02:09.926Z,14.05
2022-10-21T02:04:45.843Z,14.04
2022-10-21T02:07:16.483Z,13.97
2022-10-21T02:09:46.702Z,14.02
2022-10-21T02:12:18.518Z,14.05
2022-10-21T02:14:54.362Z,14.05
2022-10-21T02:17:26.228Z,14.04
2022-10-21T02:20:04.084Z,14.03
2022-10-21T02:22:35.876Z,13.95
2022-10-21T02:25:13.518Z,13.89
2022-10-21T02:27:43.732Z,13.85
2022-10-21T02:30:14.475Z,13.92
2022-10-21T02:32:53.873Z,13.92
2022-10-21T02:35:37.617Z,13.78
2022-10-21T02:38:17.960Z,13.64
2022-10-21T02:40:53.149Z,13.63
2022-10-21T02:43:29.245Z,13.62
2022-10-21T02:46:04.634Z,13.67
2022-10-21T02:48:36.796Z,13.65
2022-10-21T02:51:11.071Z,13.65
2022-10-21T02:53:41.155Z,13.70
2022-10-21T02:56:11.866Z,13.77
2022-10-21T02:58:42.057Z,13.79
2022-10-21T03:01:12.249Z,13.72
2022-10-21T03:03:42.480Z,13.71
2022-10-21T03:06:15.450Z,13.59
2022-10-21T03:08:45.569Z,13.64
2022-10-21T03:11:16.300Z,13.67
2022-10-21T03:13:46.491Z,13.68
2022-10-21T03:16:16.616Z,13.65
2022-10-21T03:18:46.993Z,13.56
2022-10-21T03:21:19.778Z,13.58
2022-10-21T03:23:49.866Z,13.55
2022-10-21T03:26:19.832Z,13.56
2022-10-21T03:28:49.964Z,13.56
2022-10-21T03:31:20.041Z,13.64
2022-10-21T03:33:50.211Z,13.64
2022-10-21T03:36:23.852Z,13.56
2022-10-21T03:38:53.980Z,13.62
2022-10-21T03:41:24.012Z,13.57
2022-10-21T03:43:54.069Z,13.53
2022-10-21T03:46:24.097Z,13.50
2022-10-21T03:48:54.144Z,13.55
2022-10-21T03:51:26.863Z,13.58
2022-10-21T03:53:57.013Z,13.53
2022-10-21T03:56:27.330Z,13.60
2022-10-21T03:58:58.780Z,13.64
2022-10-21T04:01:29.353Z,13.53
2022-10-21T04:03:59.609Z,13.52
2022-10-21T04:06:32.262Z,13.47
2022-10-21T04:09:02.434Z,13.39
2022-10-21T04:11:32.479Z,13.31
2022-10-21T04:14:02.774Z,13.21
2022-10-21T04:16:33.841Z,13.30
2022-10-21T04:19:04.407Z,13.40
2022-10-21T04:21:37.112Z,13.45
2022-10-21T04:24:08.311Z,13.47
2022-10-21T04:26:38.388Z,13.50
2022-10-21T04:29:08.525Z,13.42
2022-10-21T04:31:38.900Z,13.50
2022-10-21T04:34:09.038Z,13.49
2022-10-21T04:36:41.695Z,13.52
2022-10-21T04:39:11.806Z,13.45
2022-10-21T04:41:41.913Z,13.46
2022-10-21T04:44:11.961Z,13.47
2022-10-21T04:46:41.980Z,13.48
2022-10-21T04:49:12.094Z,13.41
2022-10-21T04:51:44.689Z,13.35
2022-10-21T04:54:14.907Z,13.34
2022-10-21T04:56:45.806Z,13.28
2022-10-21T04:59:15.985Z,13.27
2022-10-21T05:01:46.056Z,13.27
2022-10-21T05:04:16.114Z,13.21
2022-10-21T05:06:48.743Z,13.25
2022-10-21T05:09:19.169Z,13.13
2022-10-21T05:11:49.276Z,13.01
2022-10-21T05:14:22.531Z,12.99
2022-10-21T05:16:53.088Z,12.96
2022-10-21T05:19:24.750Z,12.79
2022-10-21T05:21:59.300Z,12.67
2022-10-21T05:24:29.478Z,12.62
2022-10-21T05:26:59.661Z,12.69
2022-10-21T05:29:29.708Z,12.71
2022-10-21T05:31:59.716Z,12.66
2022-10-21T05:34:29.823Z,12.65
2022-10-21T05:37:02.694Z,12.65
2022-10-21T05:39:32.853Z,12.68
2022-10-21T05:42:02.928Z,12.71
2022-10-21T05:44:33.011Z,12.69
2022-10-21T05:47:03.034Z,12.66
2022-10-21T05:49:33.228Z,12.68
2022-10-21T05:52:05.865Z,12.71
2022-10-21T05:54:35.923Z,12.66
2022-10-21T05:57:06.178Z,12.62
2022-10-21T05:59:36.294Z,12.61
2022-10-21T06:02:06.370Z,12.58
2022-10-21T06:04:38.743Z,12.54
2022-10-21T06:07:11.753Z,12.47
2022-10-21T06:09:41.781Z,12.44
2022-10-21T06:12:11.870Z,12.56
2022-10-21T06:14:41.881Z,12.63
2022-10-21T06:17:12.096Z,12.75
2022-10-21T06:19:44.857Z,12.80
2022-10-21T06:22:20.296Z,12.82
2022-10-21T06:24:50.890Z,12.84
2022-10-21T06:27:21.308Z,12.84
2022-10-21T06:29:51.415Z,12.88
2022-10-21T06:32:21.462Z,12.97
2022-10-21T06:34:51.507Z,13.07
2022-10-21T06:37:24.178Z,13.13
2022-10-21T06:39:54.249Z,13.24
2022-10-21T06:42:24.287Z,13.26
2022-10-21T06:44:56.706Z,13.36
2022-10-21T06:47:29.530Z,13.45
2022-10-21T06:50:03.084Z,13.46
2022-10-21T06:52:36.027Z,13.48
2022-10-21T06:55:06.511Z,13.52
2022-10-21T06:57:37.267Z,13.61
2022-10-21T07:00:08.793Z,13.72
2022-10-21T07:02:39.174Z,13.72
2022-10-21T07:05:10.751Z,13.82
2022-10-21T07:07:43.550Z,13.80
2022-10-21T07:10:13.724Z,13.94
2022-10-21T07:12:43.736Z,14.14
2022-10-21T07:15:14.896Z,14.19
2022-10-21T07:17:45.059Z,14.51
2022-10-21T07:20:15.098Z,14.71
2022-10-21T07:22:47.714Z,15.04
2022-10-21T07:25:18.000Z,15.29
2022-10-21T07:27:48.455Z,15.18
2022-10-21T07:30:19.116Z,15.01
2022-10-21T07:32:49.243Z,15.00
2022-10-21T07:35:19.401Z,15.03
2022-10-21T07:37:52.046Z,15.08
2022-10-21T07:40:22.584Z,15.20
2022-10-21T07:42:52.953Z,15.18
2022-10-21T07:45:23.068Z,15.11
2022-10-21T07:47:53.299Z,15.09
2022-10-21T07:50:23.732Z,15.01
2022-10-21T07:53:10.250Z,15.13
2022-10-21T07:55:42.391Z,15.34
2022-10-21T07:58:12.718Z,16.05
2022-10-21T08:00:46.837Z,16.26
2022-10-21T08:03:17.005Z,16.02
2022-10-21T08:05:47.048Z,15.87
2022-10-21T08:08:21.813Z,16.21
2022-10-21T08:10:52.668Z,17.47
2022-10-21T08:13:23.097Z,18.83
2022-10-21T08:15:56.974Z,19.83
2022-10-21T08:18:27.640Z,20.27
2022-10-21T08:20:58.319Z,20.62
2022-10-21T08:23:30.774Z,21.54
2022-10-21T08:26:03.207Z,22.24
2022-10-21T08:28:34.777Z,23.11
2022-10-21T08:31:10.919Z,23.76
2022-10-21T08:33:41.834Z,24.25
2022-10-21T08:36:15.242Z,24.55
2022-10-21T08:38:48.762Z,24.81
2022-10-21T08:41:43.047Z,24.39
2022-10-21T08:44:27.271Z,23.64
2022-10-21T08:47:06.688Z,23.33
2022-10-21T08:49:49.092Z,22.62
2022-10-21T08:52:25.372Z,21.81
2022-10-21T08:55:02.971Z,22.00
2022-10-21T08:57:37.647Z,22.80
2022-10-21T09:00:18.688Z,23.08
2022-10-21T09:03:04.328Z,22.63
2022-10-21T09:06:02.367Z,22.03
2022-10-21T09:08:40.719Z,21.50
2022-10-21T09:11:28.063Z,20.97
2022-10-21T09:14:43.736Z,20.67
2022-10-21T09:17:31.087Z,20.75
2022-10-21T09:20:16.471Z,21.15
2022-10-21T09:22:59.058Z,21.68
2022-10-21T09:25:36.158Z,21.47
2022-10-21T09:28:15.152Z,21.17
2022-10-21T09:30:48.057Z,21.09
2022-10-21T09:33:25.035Z,20.97
2022-10-21T09:36:00.552Z,20.91
2022-10-21T09:38:39.764Z,20.97
2022-10-21T09:41:17.537Z,20.65
2022-10-21T09:43:51.734Z,20.59
2022-10-21T09:46:22.886Z,20.74
2022-10-21T09:51:47.855Z,20.71
2022-10-21T09:54:23.399Z,20.74
2022-10-21T09:56:59.297Z,20.79
2022-10-21T09:59:33.585Z,20.83
2022-10-21T10:02:11.222Z,20.85
2022-10-21T10:04:41.493Z,21.07
2022-10-21T10:07:30.488Z,21.39
2022-10-21T10:10:00.639Z,21.62
2022-10-21T10:12:32.714Z,21.68
2022-10-21T10:15:30.684Z,21.56
2022-10-21T10:18:03.533Z,21.27
2022-10-21T10:20:33.787Z,21.16
2022-10-21T10:23:17.876Z,20.80
2022-10-21T10:25:54.342Z,20.57
2022-10-21T10:28:27.939Z,20.52
2022-10-21T10:31:00.802Z,20.72
2022-10-21T10:33:35.588Z,20.59
2022-10-21T10:36:09.601Z,21.16
2022-10-21T10:38:45.250Z,21.69
2022-10-21T10:41:18.861Z,21.92
2022-10-21T10:43:51.876Z,21.93
2022-10-21T10:46:30.474Z,21.46
2022-10-21T10:49:07.645Z,21.19
2022-10-21T10:51:40.669Z,21.27
2022-10-21T10:54:24.321Z,21.20
2022-10-21T10:56:59.202Z,21.14
2022-10-21T10:59:38.176Z,20.92
2022-10-21T11:02:26.442Z,20.89
2022-10-21T11:05:21.410Z,20.73
2022-10-21T11:07:54.374Z,20.58
2022-10-21T11:10:37.047Z,20.51
2022-10-21T11:13:14.894Z,20.50
2022-10-21T11:16:03.097Z,20.39
2022-10-21T11:18:41.359Z,20.19
2022-10-21T11:21:29.358Z,20.00
2022-10-21T11:24:26.223Z,19.85
2022-10-21T11:27:03.337Z,19.83
2022-10-21T11:29:48.831Z,19.77
2022-10-21T11:32:47.926Z,19.78
2022-10-21T11:35:44.445Z,19.69
2022-10-21T11:38:33.259Z,19.59
2022-10-21T11:41:21.899Z,19.32
2022-10-21T11:44:10.000Z,19.19
2022-10-21T11:46:49.422Z,19.13
2022-10-21T11:49:44.789Z,19.11
2022-10-21T11:52:30.337Z,18.98
2022-10-21T11:55:35.438Z,18.97
2022-10-21T11:58:30.689Z,18.91
2022-10-21T12:01:24.097Z,18.87
2022-10-21T12:04:30.437Z,18.87
2022-10-21T12:07:19.431Z,18.81
2022-10-21T12:09:56.684Z,18.76
2022-10-21T12:12:34.515Z,18.72
2022-10-21T12:15:09.559Z,18.70
2022-10-21T12:17:40.307Z,18.70
2022-10-21T12:20:23.898Z,18.62
2022-10-21T12:23:03.345Z,18.50
2022-10-21T12:25:43.149Z,18.48
2022-10-21T12:28:25.477Z,18.46
2022-10-21T12:31:03.669Z,18.42
2022-10-21T12:33:41.660Z,18.29
2022-10-21T12:36:22.215Z,18.22
2022-10-21T12:38:56.833Z,18.25
2022-10-21T12:41:34.623Z,18.22
2022-10-21T12:44:21.688Z,18.24
2022-10-21T12:46:55.391Z,18.20
2022-10-21T12:49:32.498Z,18.01
2022-10-21T12:52:12.652Z,17.96
2022-10-21T12:54:57.124Z,17.90
2022-10-21T12:57:32.016Z,17.76
2022-10-21T13:00:55.434Z,17.78
2022-10-21T13:03:58.176Z,17.83
2022-10-21T13:06:54.841Z,17.80
2022-10-21T13:09:43.569Z,17.77
2022-10-21T13:12:29.705Z,17.67
2022-10-21T13:15:02.324Z,17.61
2022-10-21T13:17:55.290Z,17.49
2022-10-21T13:21:00.964Z,17.42
2022-10-21T13:23:40.053Z,17.33
2022-10-21T13:26:21.630Z,17.27
2022-10-21T13:29:24.824Z,17.25
2022-10-21T13:32:15.249Z,17.22
2022-10-21T13:35:02.448Z,17.09
2022-10-21T13:37:39.137Z,17.01
2022-10-21T13:40:18.375Z,16.97
2022-10-21T13:42:57.720Z,16.93
2022-10-21T13:45:32.322Z,16.98
2022-10-21T13:48:09.116Z,17.05
2022-10-21T13:50:43.626Z,16.97
2022-10-21T13:53:36.473Z,16.82
2022-10-21T13:56:10.684Z,16.75
2022-10-21T13:58:42.353Z,16.61
2022-10-21T14:01:15.191Z,16.54
2022-10-21T14:03:45.782Z,16.43
2022-10-21T14:06:30.819Z,16.47
2022-10-21T14:09:08.276Z,16.42
2022-10-21T14:11:46.776Z,16.42
2022-10-21T14:14:20.703Z,16.27
2022-10-21T14:16:55.354Z,16.07
2022-10-21T14:19:29.346Z,15.91
2022-10-21T14:22:03.178Z,15.80
2022-10-21T14:24:43.488Z,15.54
2022-10-21T14:27:17.743Z,15.55
2022-10-21T14:29:48.880Z,15.54
2022-10-21T14:32:22.360Z,15.34
2022-10-21T14:35:24.319Z,15.25
2022-10-21T14:37:57.861Z,15.13
2022-10-21T14:40:34.636Z,15.08
2022-10-21T14:43:08.723Z,15.03
2022-10-21T14:45:48.127Z,14.97
2022-10-21T14:48:25.092Z,15.03
2022-10-21T14:50:59.925Z,14.98
2022-10-21T14:53:33.393Z,15.01
2022-10-21T14:56:09.360Z,14.99
2022-10-21T14:58:41.376Z,14.96
2022-10-21T15:01:17.649Z,14.94
2022-10-21T15:03:50.208Z,14.91
2022-10-21T15:06:23.817Z,14.88
2022-10-21T15:09:09.922Z,14.76
2022-10-21T15:11:45.806Z,14.74
2022-10-21T15:14:33.143Z,14.74
2022-10-21T15:17:06.934Z,14.67
2022-10-21T15:19:47.718Z,14.64
2022-10-21T15:22:38.097Z,14.64
2022-10-21T15:25:12.208Z,14.64
2022-10-21T15:27:46.045Z,14.74
2022-10-21T15:30:23.368Z,14.78
2022-10-21T15:32:55.193Z,14.78
2022-10-21T15:35:26.904Z,14.63
2022-10-21T15:37:57.549Z,14.46
2022-10-21T15:40:27.720Z,14.38
2022-10-21T15:43:00.502Z,14.35
2022-10-21T15:45:30.773Z,14.34
2022-10-21T15:48:00.860Z,14.30
2022-10-21T15:50:30.879Z,14.25
2022-10-21T15:53:00.928Z,14.20
2022-10-21T15:55:30.916Z,14.27
2022-10-21T15:58:03.524Z,14.29
2022-10-21T16:00:40.060Z,14.35
2022-10-21T16:03:11.554Z,14.43
2022-10-21T16:05:42.006Z,14.44
2022-10-21T16:08:15.381Z,14.50
2022-10-21T16:10:47.939Z,14.48
2022-10-21T16:13:20.712Z,14.52
2022-10-21T16:15:50.894Z,14.57
2022-10-21T16:18:21.053Z,14.62
2022-10-21T16:20:51.062Z,14.67
2022-10-21T16:23:21.114Z,14.70
2022-10-21T16:25:51.235Z,14.72
2022-10-21T16:28:23.951Z,14.78
2022-10-21T16:30:54.104Z,14.72
2022-10-21T16:33:24.391Z,14.77
2022-10-21T16:35:54.541Z,14.84
2022-10-21T16:38:24.636Z,14.90
2022-10-21T16:40:54.829Z,14.94
2022-10-21T16:43:27.518Z,15.00
2022-10-21T16:45:57.632Z,14.98
2022-10-21T16:48:27.904Z,15.03
2022-10-21T16:50:58.110Z,15.03
2022-10-21T16:53:29.195Z,15.02
2022-10-21T16:55:59.335Z,15.08
2022-10-21T16:58:35.036Z,15.16
2022-10-21T17:01:06.654Z,15.19
2022-10-21T17:03:37.324Z,15.19
2022-10-21T17:06:07.565Z,15.22
2022-10-21T17:08:37.666Z,15.31
2022-10-21T17:11:08.117Z,15.36
2022-10-21T17:13:40.881Z,15.40
2022-10-21T17:16:12.429Z,15.38
2022-10-21T17:18:43.168Z,15.38
2022-10-21T17:21:23.441Z,15.36
2022-10-21T17:23:55.220Z,15.40
2022-10-21T17:26:26.073Z,15.45
2022-10-21T17:28:58.946Z,15.46
2022-10-21T17:31:32.481Z,15.47
2022-10-21T17:34:07.476Z,15.38
2022-10-21T17:36:38.980Z,15.43
2022-10-21T17:39:09.078Z,15.50
2022-10-21T17:41:39.182Z,15.48
2022-10-21T17:44:14.114Z,15.43
2022-10-21T17:46:46.105Z,15.44
2022-10-21T17:49:16.686Z,15.39
2022-10-21T17:51:46.863Z,15.40
2022-10-21T17:54:16.856Z,15.43
2022-10-21T17:56:47.043Z,15.38
2022-10-21T17:59:19.993Z,15.44
2022-10-21T18:01:50.190Z,15.48
2022-10-21T18:04:20.305Z,15.43
2022-10-21T18:06:50.477Z,15.50
2022-10-21T18:09:20.712Z,15.59
2022-10-21T18:11:50.981Z,15.66
2022-10-21T18:14:23.852Z,15.68
2022-10-21T18:16:54.122Z,15.65
2022-10-21T18:19:24.254Z,15.67
2022-10-21T18:21:54.304Z,15.66
2022-10-21T18:24:24.684Z,15.63
2022-10-21T18:26:54.672Z,15.55
2022-10-21T18:29:27.410Z,15.57
2022-10-21T18:31:57.573Z,15.64
2022-10-21T18:34:27.898Z,15.69
2022-10-21T18:36:59.678Z,15.69
2022-10-21T18:39:30.268Z,15.66
2022-10-21T18:42:00.420Z,15.59
2022-10-21T18:44:33.141Z,15.66
2022-10-21T18:47:03.325Z,15.71
2022-10-21T18:49:33.521Z,15.65
2022-10-21T18:52:03.785Z,15.65
2022-10-21T18:54:33.889Z,15.62
2022-10-21T18:57:06.652Z,15.57
2022-10-21T18:59:39.721Z,15.61
2022-10-21T19:02:11.703Z,15.63
2022-10-21T19:04:44.186Z,15.54
2022-10-21T19:07:14.252Z,15.54
2022-10-21T19:09:44.337Z,15.53
2022-10-21T19:12:17.372Z,15.53
2022-10-21T19:14:52.502Z,15.55
2022-10-21T19:17:22.638Z,15.53
2022-10-21T19:19:53.473Z,15.48
2022-10-21T19:22:23.660Z,15.49
2022-10-21T19:24:53.804Z,15.50
2022-10-21T19:27:24.575Z,15.55
2022-10-21T19:29:57.295Z,15.60
2022-10-21T19:32:27.467Z,15.63
2022-10-21T19:34:57.569Z,15.60
2022-10-21T19:37:27.625Z,15.62
2022-10-21T19:39:57.789Z,15.69
2022-10-21T19:42:27.957Z,15.66
2022-10-21T19:45:00.666Z,15.64
2022-10-21T19:47:31.354Z,15.62
2022-10-21T19:50:02.001Z,15.70
2022-10-21T19:52:32.287Z,15.67
2022-10-21T19:55:02.474Z,15.65
2022-10-21T19:57:32.724Z,15.69
2022-10-21T20:00:07.295Z,15.67
2022-10-21T20:02:42.095Z,15.68
2022-10-21T20:05:12.859Z,15.71
2022-10-21T20:07:43.208Z,15.75
2022-10-21T20:10:14.617Z,15.71
2022-10-21T20:12:45.009Z,15.66
2022-10-21T20:15:17.986Z,15.61
2022-10-21T20:17:48.218Z,15.64
2022-10-21T20:20:18.616Z,15.65
2022-10-21T20:22:48.732Z,15.75
2022-10-21T20:25:21.833Z,15.74
2022-10-21T20:27:52.051Z,15.76
2022-10-21T20:30:24.715Z,15.85
2022-10-21T20:32:54.808Z,15.90
2022-10-21T20:35:25.010Z,16.01
2022-10-21T20:37:55.280Z,15.94
2022-10-21T20:40:27.251Z,15.98
2022-10-21T20:42:57.320Z,15.86
2022-10-21T20:45:30.110Z,15.89
2022-10-21T20:48:00.456Z,15.97
2022-10-21T20:50:31.082Z,16.00
2022-10-21T20:53:01.130Z,16.04
2022-10-21T20:55:31.224Z,16.03
2022-10-21T20:58:01.294Z,16.02
2022-10-21T21:00:33.949Z,15.97
2022-10-21T21:03:03.984Z,15.97
2022-10-21T21:05:36.582Z,16.02
2022-10-21T21:08:09.501Z,16.03
2022-10-21T21:10:39.713Z,16.08
2022-10-21T21:13:09.961Z,16.12
2022-10-21T21:15:42.735Z,16.12
2022-10-21T21:18:14.195Z,16.10
2022-10-21T21:20:44.389Z,16.14
2022-10-21T21:23:14.467Z,16.20
2022-10-21T21:25:44.621Z,16.26
2022-10-21T21:28:14.842Z,16.30
2022-10-21T21:30:54.750Z,16.31
2022-10-21T21:33:24.909Z,16.29
2022-10-21T21:35:55.407Z,16.31
2022-10-21T21:38:25.652Z,16.34
2022-10-21T21:40:55.904Z,16.36
2022-10-21T21:43:26.162Z,16.47
2022-10-21T21:45:59.566Z,16.50
2022-10-21T21:48:30.246Z,16.44
2022-10-21T21:51:04.426Z,16.45
2022-10-21T21:53:34.709Z,16.40
2022-10-21T21:56:05.565Z,16.28
2022-10-21T21:58:35.426Z,16.30
2022-10-21T22:01:14.793Z,16.31
2022-10-21T22:03:47.090Z,16.38
2022-10-21T22:06:18.195Z,16.39
2022-10-21T22:08:49.160Z,16.35
2022-10-21T22:11:22.089Z,16.33
2022-10-21T22:13:53.227Z,16.32
2022-10-21T22:16:30.373Z,16.33
2022-10-21T22:19:02.921Z,16.33
2022-10-21T22:21:34.760Z,16.29
2022-10-21T22:24:04.837Z,16.26
2022-10-21T22:26:35.060Z,16.30
2022-10-21T22:29:05.180Z,16.30
2022-10-21T22:31:37.879Z,16.22
2022-10-21T22:34:11.048Z,16.25
2022-10-21T22:36:42.309Z,16.24
2022-10-21T22:39:12.328Z,16.30
2022-10-21T22:41:42.412Z,16.32
2022-10-21T22:44:16.640Z,16.31
2022-10-21T22:46:49.338Z,16.25
2022-10-21T22:49:19.810Z,16.25
2022-10-21T22:54:46.414Z,16.26
2022-10-21T22:57:10.482Z,16.20
2022-10-21T22:59:40.505Z,16.12
2022-10-21T23:02:13.342Z,16.02
2022-10-21T23:04:43.443Z,16.02
2022-10-21T23:07:13.490Z,16.05
2022-10-21T23:09:43.581Z,16.09
2022-10-21T23:12:13.646Z,16.14
2022-10-21T23:14:43.705Z,16.19
2022-10-21T23:17:16.492Z,16.21
2022-10-21T23:19:46.925Z,16.21
2022-10-21T23:22:17.283Z,16.25
2022-10-21T23:24:47.615Z,16.30
2022-10-21T23:27:17.748Z,16.28
2022-10-21T23:29:47.867Z,16.27
2022-10-21T23:32:20.632Z,16.31
2022-10-21T23:34:50.842Z,16.24
2022-10-21T23:40:13.297Z,16.15
2022-10-21T23:42:43.665Z,16.15
2022-10-21T23:45:14.489Z,16.13
2022-10-21T23:47:47.048Z,16.13
2022-10-21T23:50:17.462Z,16.14
2022-10-21T23:52:47.812Z,16.10
2022-10-21T23:55:18.210Z,16.11
2022-10-21T23:57:48.494Z,16.09
